sensor_id;sensor_type;location;lat;lon;timestamp;P1;durP1;ratioP1;P2;durP2;ratioP2
2021;SDS011;1015;49.756;6.994;2024-02-04T00:01:04;3.07;;;2.77;;
2021;SDS011;1015;49.756;6.994;2024-02-04T00:03:31;3.43;;;3.13;;
2021;SDS011;1015;49.756;6.994;2024-02-04T00:05:58;3.70;;;3.10;;
2021;SDS011;1015;49.756;6.994;2024-02-04T00:08:25;4.30;;;3.10;;
2021;SDS011;1015;49.756;6.994;2024-02-04T00:10:54;4.03;;;3.23;;
2021;SDS011;1015;49.756;6.994;2024-02-04T00:13:21;4.70;;;4.00;;
2021;SDS011;1015;49.756;6.994;2024-02-04T00:15:48;3.70;;;3.10;;
2021;SDS011;1015;49.756;6.994;2024-02-04T00:18:17;4.07;;;3.60;;
2021;SDS011;1015;49.756;6.994;2024-02-04T00:20:44;4.00;;;3.60;;
2021;SDS011;1015;49.756;6.994;2024-02-04T00:23:11;3.93;;;3.30;;
2021;SDS011;1015;49.756;6.994;2024-02-04T00:25:38;3.43;;;3.13;;
2021;SDS011;1015;49.756;6.994;2024-02-04T00:30:56;4.43;;;3.63;;
2021;SDS011;1015;49.756;6.994;2024-02-04T00:33:24;4.50;;;3.90;;
2021;SDS011;1015;49.756;6.994;2024-02-04T00:35:51;4.37;;;3.97;;
2021;SDS011;1015;49.756;6.994;2024-02-04T00:38:18;4.63;;;3.63;;
2021;SDS011;1015;49.756;6.994;2024-02-04T00:40:45;3.67;;;3.20;;
2021;SDS011;1015;49.756;6.994;2024-02-04T00:43:12;4.73;;;3.97;;
2021;SDS011;1015;49.756;6.994;2024-02-04T00:45:39;5.07;;;4.10;;
2021;SDS011;1015;49.756;6.994;2024-02-04T00:54:03;4.53;;;3.37;;
2021;SDS011;1015;49.756;6.994;2024-02-04T00:56:30;4.60;;;3.87;;
2021;SDS011;1015;49.756;6.994;2024-02-04T00:58:57;6.53;;;3.60;;
2021;SDS011;1015;49.756;6.994;2024-02-04T01:01:24;4.50;;;3.53;;
2021;SDS011;1015;49.756;6.994;2024-02-04T01:03:52;3.43;;;3.13;;
2021;SDS011;1015;49.756;6.994;2024-02-04T01:06:19;4.07;;;3.00;;
2021;SDS011;1015;49.756;6.994;2024-02-04T01:08:46;4.20;;;3.27;;
2021;SDS011;1015;49.756;6.994;2024-02-04T01:11:14;4.03;;;3.40;;
2021;SDS011;1015;49.756;6.994;2024-02-04T01:13:41;5.13;;;3.03;;
2021;SDS011;1015;49.756;6.994;2024-02-04T01:16:08;4.20;;;3.00;;
2021;SDS011;1015;49.756;6.994;2024-02-04T01:18:35;3.93;;;2.70;;
2021;SDS011;1015;49.756;6.994;2024-02-04T01:21:03;4.37;;;3.33;;
2021;SDS011;1015;49.756;6.994;2024-02-04T01:23:30;3.33;;;2.70;;
2021;SDS011;1015;49.756;6.994;2024-02-04T01:25:57;3.90;;;3.17;;
2021;SDS011;1015;49.756;6.994;2024-02-04T01:28:25;4.63;;;3.50;;
2021;SDS011;1015;49.756;6.994;2024-02-04T01:30:52;3.23;;;2.93;;
2021;SDS011;1015;49.756;6.994;2024-02-04T01:33:19;3.90;;;3.50;;
2021;SDS011;1015;49.756;6.994;2024-02-04T01:35:47;4.53;;;3.10;;
2021;SDS011;1015;49.756;6.994;2024-02-04T01:38:14;3.60;;;3.00;;
2021;SDS011;1015;49.756;6.994;2024-02-04T01:40:41;4.43;;;3.43;;
2021;SDS011;1015;49.756;6.994;2024-02-04T01:43:08;5.03;;;3.63;;
2021;SDS011;1015;49.756;6.994;2024-02-04T01:45:36;3.60;;;3.00;;
2021;SDS011;1015;49.756;6.994;2024-02-04T01:48:04;3.80;;;2.73;;
2021;SDS011;1015;49.756;6.994;2024-02-04T01:50:31;4.10;;;2.77;;
2021;SDS011;1015;49.756;6.994;2024-02-04T01:52:58;4.47;;;3.60;;
2021;SDS011;1015;49.756;6.994;2024-02-04T01:55:24;4.50;;;2.63;;
2021;SDS011;1015;49.756;6.994;2024-02-04T01:57:51;4.47;;;3.40;;
2021;SDS011;1015;49.756;6.994;2024-02-04T02:00:19;4.13;;;2.63;;
2021;SDS011;1015;49.756;6.994;2024-02-04T02:02:47;2.70;;;2.50;;
2021;SDS011;1015;49.756;6.994;2024-02-04T02:05:15;3.73;;;2.53;;
2021;SDS011;1015;49.756;6.994;2024-02-04T02:10:46;3.53;;;2.80;;
2021;SDS011;1015;49.756;6.994;2024-02-04T02:13:15;3.30;;;2.67;;
2021;SDS011;1015;49.756;6.994;2024-02-04T02:15:43;3.73;;;2.97;;
2021;SDS011;1015;49.756;6.994;2024-02-04T02:18:14;3.20;;;2.53;;
2021;SDS011;1015;49.756;6.994;2024-02-04T02:20:48;2.87;;;2.57;;
2021;SDS011;1015;49.756;6.994;2024-02-04T02:23:21;2.97;;;2.67;;
2021;SDS011;1015;49.756;6.994;2024-02-04T02:25:51;3.43;;;2.90;;
2021;SDS011;1015;49.756;6.994;2024-02-04T02:28:18;3.23;;;2.73;;
2021;SDS011;1015;49.756;6.994;2024-02-04T02:30:45;3.20;;;2.67;;
2021;SDS011;1015;49.756;6.994;2024-02-04T02:33:12;3.33;;;3.03;;
2021;SDS011;1015;49.756;6.994;2024-02-04T02:35:39;2.90;;;2.60;;
2021;SDS011;1015;49.756;6.994;2024-02-04T02:38:07;3.13;;;2.67;;
2021;SDS011;1015;49.756;6.994;2024-02-04T02:40:38;2.97;;;2.47;;
2021;SDS011;1015;49.756;6.994;2024-02-04T02:43:08;4.10;;;3.10;;
2021;SDS011;1015;49.756;6.994;2024-02-04T02:45:37;3.10;;;2.33;;
2021;SDS011;1015;49.756;6.994;2024-02-04T02:48:05;2.83;;;2.63;;
2021;SDS011;1015;49.756;6.994;2024-02-04T02:50:33;2.60;;;2.40;;
2021;SDS011;1015;49.756;6.994;2024-02-04T02:53:00;3.27;;;2.97;;
2021;SDS011;1015;49.756;6.994;2024-02-04T02:55:27;2.63;;;2.43;;
2021;SDS011;1015;49.756;6.994;2024-02-04T02:57:55;2.90;;;2.47;;
2021;SDS011;1015;49.756;6.994;2024-02-04T03:00:23;4.10;;;2.80;;
2021;SDS011;1015;49.756;6.994;2024-02-04T03:02:50;2.90;;;2.50;;
2021;SDS011;1015;49.756;6.994;2024-02-04T03:05:17;3.30;;;2.77;;
2021;SDS011;1015;49.756;6.994;2024-02-04T03:07:44;2.97;;;2.30;;
2021;SDS011;1015;49.756;6.994;2024-02-04T03:10:11;4.47;;;3.13;;
2021;SDS011;1015;49.756;6.994;2024-02-04T03:12:38;2.40;;;2.03;;
2021;SDS011;1015;49.756;6.994;2024-02-04T03:15:06;2.30;;;2.10;;
2021;SDS011;1015;49.756;6.994;2024-02-04T03:17:34;3.80;;;2.87;;
2021;SDS011;1015;49.756;6.994;2024-02-04T03:20:01;3.27;;;2.73;;
2021;SDS011;1015;49.756;6.994;2024-02-04T03:22:28;3.80;;;2.60;;
2021;SDS011;1015;49.756;6.994;2024-02-04T03:24:55;3.17;;;2.73;;
2021;SDS011;1015;49.756;6.994;2024-02-04T03:27:22;2.50;;;2.30;;
2021;SDS011;1015;49.756;6.994;2024-02-04T03:29:49;3.07;;;2.60;;
2021;SDS011;1015;49.756;6.994;2024-02-04T03:32:16;4.00;;;2.80;;
2021;SDS011;1015;49.756;6.994;2024-02-04T03:34:45;2.57;;;2.37;;
2021;SDS011;1015;49.756;6.994;2024-02-04T03:37:12;3.00;;;2.60;;
2021;SDS011;1015;49.756;6.994;2024-02-04T03:39:39;2.90;;;2.53;;
2021;SDS011;1015;49.756;6.994;2024-02-04T03:42:06;2.83;;;2.53;;
2021;SDS011;1015;49.756;6.994;2024-02-04T03:44:33;2.87;;;2.57;;
2021;SDS011;1015;49.756;6.994;2024-02-04T03:47:00;6.60;;;2.70;;
2021;SDS011;1015;49.756;6.994;2024-02-04T03:49:28;2.50;;;2.30;;
2021;SDS011;1015;49.756;6.994;2024-02-04T03:51:56;3.40;;;2.73;;
2021;SDS011;1015;49.756;6.994;2024-02-04T03:54:23;2.70;;;2.33;;
2021;SDS011;1015;49.756;6.994;2024-02-04T03:56:51;3.40;;;2.90;;
2021;SDS011;1015;49.756;6.994;2024-02-04T03:59:18;3.50;;;3.20;;
2021;SDS011;1015;49.756;6.994;2024-02-04T04:01:46;2.60;;;2.40;;
2021;SDS011;1015;49.756;6.994;2024-02-04T04:04:14;3.00;;;2.70;;
2021;SDS011;1015;49.756;6.994;2024-02-04T04:06:42;3.63;;;3.23;;
2021;SDS011;1015;49.756;6.994;2024-02-04T04:09:10;4.33;;;3.23;;
2021;SDS011;1015;49.756;6.994;2024-02-04T04:11:37;3.00;;;2.67;;
2021;SDS011;1015;49.756;6.994;2024-02-04T04:14:04;2.90;;;2.60;;
2021;SDS011;1015;49.756;6.994;2024-02-04T04:16:31;3.20;;;2.87;;
2021;SDS011;1015;49.756;6.994;2024-02-04T04:18:58;2.80;;;2.60;;
2021;SDS011;1015;49.756;6.994;2024-02-04T04:21:25;2.90;;;2.27;;
2021;SDS011;1015;49.756;6.994;2024-02-04T04:23:52;4.23;;;2.50;;
2021;SDS011;1015;49.756;6.994;2024-02-04T04:26:21;2.60;;;2.40;;
2021;SDS011;1015;49.756;6.994;2024-02-04T04:28:48;3.50;;;2.90;;
2021;SDS011;1015;49.756;6.994;2024-02-04T04:31:15;5.60;;;2.97;;
2021;SDS011;1015;49.756;6.994;2024-02-04T04:33:42;2.40;;;2.20;;
2021;SDS011;1015;49.756;6.994;2024-02-04T04:36:09;2.70;;;2.30;;
2021;SDS011;1015;49.756;6.994;2024-02-04T04:38:36;2.77;;;2.47;;
2021;SDS011;1015;49.756;6.994;2024-02-04T04:41:03;2.50;;;2.30;;
2021;SDS011;1015;49.756;6.994;2024-02-04T04:43:32;3.47;;;3.17;;
2021;SDS011;1015;49.756;6.994;2024-02-04T04:46:00;2.67;;;2.47;;
2021;SDS011;1015;49.756;6.994;2024-02-04T04:48:27;3.27;;;2.37;;
2021;SDS011;1015;49.756;6.994;2024-02-04T04:50:54;3.03;;;2.73;;
2021;SDS011;1015;49.756;6.994;2024-02-04T04:53:22;3.40;;;2.93;;
2021;SDS011;1015;49.756;6.994;2024-02-04T04:55:49;3.20;;;2.83;;
2021;SDS011;1015;49.756;6.994;2024-02-04T04:58:16;3.60;;;3.13;;
2021;SDS011;1015;49.756;6.994;2024-02-04T05:00:44;3.63;;;2.70;;
2021;SDS011;1015;49.756;6.994;2024-02-04T05:03:12;3.20;;;2.67;;
2021;SDS011;1015;49.756;6.994;2024-02-04T05:05:39;4.20;;;2.80;;
2021;SDS011;1015;49.756;6.994;2024-02-04T05:08:06;3.60;;;3.20;;
2021;SDS011;1015;49.756;6.994;2024-02-04T05:10:33;3.40;;;2.73;;
2021;SDS011;1015;49.756;6.994;2024-02-04T05:13:00;3.23;;;2.93;;
2021;SDS011;1015;49.756;6.994;2024-02-04T05:15:27;4.43;;;3.03;;
2021;SDS011;1015;49.756;6.994;2024-02-04T05:17:56;3.87;;;3.17;;
2021;SDS011;1015;49.756;6.994;2024-02-04T05:20:23;3.20;;;2.80;;
2021;SDS011;1015;49.756;6.994;2024-02-04T05:22:50;3.47;;;3.17;;
2021;SDS011;1015;49.756;6.994;2024-02-04T05:25:19;3.37;;;3.07;;
2021;SDS011;1015;49.756;6.994;2024-02-04T05:27:46;3.37;;;2.50;;
2021;SDS011;1015;49.756;6.994;2024-02-04T05:30:13;3.97;;;2.70;;
2021;SDS011;1015;49.756;6.994;2024-02-04T05:32:40;2.87;;;2.60;;
2021;SDS011;1015;49.756;6.994;2024-02-04T05:35:10;3.33;;;3.03;;
2021;SDS011;1015;49.756;6.994;2024-02-04T05:37:37;2.90;;;2.40;;
2021;SDS011;1015;49.756;6.994;2024-02-04T05:40:05;3.10;;;2.80;;
2021;SDS011;1015;49.756;6.994;2024-02-04T05:42:32;3.20;;;2.90;;
2021;SDS011;1015;49.756;6.994;2024-02-04T05:45:00;3.07;;;2.67;;
2021;SDS011;1015;49.756;6.994;2024-02-04T05:47:28;3.40;;;3.07;;
2021;SDS011;1015;49.756;6.994;2024-02-04T05:49:55;2.83;;;2.53;;
2021;SDS011;1015;49.756;6.994;2024-02-04T05:52:23;2.37;;;2.17;;
2021;SDS011;1015;49.756;6.994;2024-02-04T05:54:50;3.00;;;2.70;;
2021;SDS011;1015;49.756;6.994;2024-02-04T05:57:17;2.87;;;2.53;;
2021;SDS011;1015;49.756;6.994;2024-02-04T05:59:45;3.50;;;3.10;;
2021;SDS011;1015;49.756;6.994;2024-02-04T06:02:13;3.07;;;2.87;;
2021;SDS011;1015;49.756;6.994;2024-02-04T06:04:40;3.27;;;2.97;;
2021;SDS011;1015;49.756;6.994;2024-02-04T06:07:07;3.20;;;2.90;;
2021;SDS011;1015;49.756;6.994;2024-02-04T06:09:35;4.27;;;2.97;;
2021;SDS011;1015;49.756;6.994;2024-02-04T06:12:02;3.50;;;3.00;;
2021;SDS011;1015;49.756;6.994;2024-02-04T06:14:32;3.60;;;3.23;;
2021;SDS011;1015;49.756;6.994;2024-02-04T06:16:59;3.70;;;2.83;;
2021;SDS011;1015;49.756;6.994;2024-02-04T06:19:27;3.57;;;3.23;;
2021;SDS011;1015;49.756;6.994;2024-02-04T06:21:54;3.70;;;3.27;;
2021;SDS011;1015;49.756;6.994;2024-02-04T06:24:21;4.30;;;3.20;;
2021;SDS011;1015;49.756;6.994;2024-02-04T06:26:49;3.83;;;3.20;;
2021;SDS011;1015;49.756;6.994;2024-02-04T06:29:16;4.40;;;3.60;;
2021;SDS011;1015;49.756;6.994;2024-02-04T06:31:44;3.70;;;3.30;;
2021;SDS011;1015;49.756;6.994;2024-02-04T06:34:11;4.10;;;3.10;;
2021;SDS011;1015;49.756;6.994;2024-02-04T06:36:41;3.67;;;3.33;;
2021;SDS011;1015;49.756;6.994;2024-02-04T06:39:09;3.20;;;2.87;;
2021;SDS011;1015;49.756;6.994;2024-02-04T06:41:36;3.83;;;3.43;;
2021;SDS011;1015;49.756;6.994;2024-02-04T06:44:04;3.70;;;3.30;;
2021;SDS011;1015;49.756;6.994;2024-02-04T06:46:31;4.70;;;2.87;;
2021;SDS011;1015;49.756;6.994;2024-02-04T06:48:58;2.83;;;2.60;;
2021;SDS011;1015;49.756;6.994;2024-02-04T06:51:26;4.37;;;3.23;;
2021;SDS011;1015;49.756;6.994;2024-02-04T06:53:53;3.50;;;3.20;;
2021;SDS011;1015;49.756;6.994;2024-02-04T06:56:20;3.47;;;3.10;;
2021;SDS011;1015;49.756;6.994;2024-02-04T06:58:47;3.07;;;2.67;;
2021;SDS011;1015;49.756;6.994;2024-02-04T07:01:15;2.70;;;2.50;;
2021;SDS011;1015;49.756;6.994;2024-02-04T07:03:42;3.00;;;2.57;;
2021;SDS011;1015;49.756;6.994;2024-02-04T07:06:10;3.47;;;2.90;;
2021;SDS011;1015;49.756;6.994;2024-02-04T07:08:37;3.77;;;2.97;;
2021;SDS011;1015;49.756;6.994;2024-02-04T07:11:04;3.17;;;2.87;;
2021;SDS011;1015;49.756;6.994;2024-02-04T07:13:31;2.83;;;2.63;;
2021;SDS011;1015;49.756;6.994;2024-02-04T07:15:59;3.50;;;3.10;;
2021;SDS011;1015;49.756;6.994;2024-02-04T07:18:27;3.10;;;2.80;;
2021;SDS011;1015;49.756;6.994;2024-02-04T07:20:54;2.70;;;2.50;;
2021;SDS011;1015;49.756;6.994;2024-02-04T07:23:21;3.10;;;2.80;;
2021;SDS011;1015;49.756;6.994;2024-02-04T07:25:48;2.57;;;2.37;;
2021;SDS011;1015;49.756;6.994;2024-02-04T07:28:15;2.60;;;2.40;;
2021;SDS011;1015;49.756;6.994;2024-02-04T07:30:42;2.90;;;2.43;;
2021;SDS011;1015;49.756;6.994;2024-02-04T07:33:09;2.00;;;1.90;;
2021;SDS011;1015;49.756;6.994;2024-02-04T07:35:38;2.10;;;1.93;;
2021;SDS011;1015;49.756;6.994;2024-02-04T07:38:05;2.30;;;2.10;;
2021;SDS011;1015;49.756;6.994;2024-02-04T07:40:32;1.70;;;1.60;;
2021;SDS011;1015;49.756;6.994;2024-02-04T07:42:59;1.77;;;1.67;;
2021;SDS011;1015;49.756;6.994;2024-02-04T07:45:26;2.07;;;1.87;;
2021;SDS011;1015;49.756;6.994;2024-02-04T07:47:53;2.00;;;1.90;;
2021;SDS011;1015;49.756;6.994;2024-02-04T07:50:20;1.83;;;1.73;;
2021;SDS011;1015;49.756;6.994;2024-02-04T07:53:01;2.27;;;2.07;;
2021;SDS011;1015;49.756;6.994;2024-02-04T07:55:28;2.10;;;1.90;;
2021;SDS011;1015;49.756;6.994;2024-02-04T07:57:55;2.00;;;1.87;;
2021;SDS011;1015;49.756;6.994;2024-02-04T08:00:22;1.90;;;1.80;;
2021;SDS011;1015;49.756;6.994;2024-02-04T08:02:49;2.23;;;2.03;;
2021;SDS011;1015;49.756;6.994;2024-02-04T08:05:17;2.07;;;1.90;;
2021;SDS011;1015;49.756;6.994;2024-02-04T08:07:44;2.40;;;2.20;;
2021;SDS011;1015;49.756;6.994;2024-02-04T08:10:12;1.90;;;1.80;;
2021;SDS011;1015;49.756;6.994;2024-02-04T08:12:40;2.50;;;2.30;;
2021;SDS011;1015;49.756;6.994;2024-02-04T08:15:07;2.30;;;2.10;;
2021;SDS011;1015;49.756;6.994;2024-02-04T08:17:35;2.43;;;2.23;;
2021;SDS011;1015;49.756;6.994;2024-02-04T08:20:02;2.73;;;2.53;;
2021;SDS011;1015;49.756;6.994;2024-02-04T08:22:30;2.53;;;2.33;;
2021;SDS011;1015;49.756;6.994;2024-02-04T08:24:57;2.43;;;2.23;;
2021;SDS011;1015;49.756;6.994;2024-02-04T08:27:25;2.33;;;2.10;;
2021;SDS011;1015;49.756;6.994;2024-02-04T08:29:52;3.93;;;1.83;;
2021;SDS011;1015;49.756;6.994;2024-02-04T08:32:20;2.60;;;2.40;;
2021;SDS011;1015;49.756;6.994;2024-02-04T08:34:47;1.80;;;1.70;;
2021;SDS011;1015;49.756;6.994;2024-02-04T08:37:14;2.30;;;2.10;;
2021;SDS011;1015;49.756;6.994;2024-02-04T08:39:41;2.67;;;2.00;;
2021;SDS011;1015;49.756;6.994;2024-02-04T08:42:08;2.10;;;1.90;;
2021;SDS011;1015;49.756;6.994;2024-02-04T08:44:36;1.80;;;1.70;;
2021;SDS011;1015;49.756;6.994;2024-02-04T08:47:04;1.67;;;1.57;;
2021;SDS011;1015;49.756;6.994;2024-02-04T08:49:35;1.70;;;1.60;;
2021;SDS011;1015;49.756;6.994;2024-02-04T08:52:02;1.93;;;1.73;;
2021;SDS011;1015;49.756;6.994;2024-02-04T08:54:29;2.20;;;1.70;;
2021;SDS011;1015;49.756;6.994;2024-02-04T08:56:56;2.30;;;2.10;;
2021;SDS011;1015;49.756;6.994;2024-02-04T08:59:23;2.00;;;1.90;;
2021;SDS011;1015;49.756;6.994;2024-02-04T09:01:51;1.80;;;1.70;;
2021;SDS011;1015;49.756;6.994;2024-02-04T09:04:19;1.40;;;1.30;;
2021;SDS011;1015;49.756;6.994;2024-02-04T09:06:46;1.60;;;1.40;;
2021;SDS011;1015;49.756;6.994;2024-02-04T09:09:13;1.30;;;1.20;;
2021;SDS011;1015;49.756;6.994;2024-02-04T09:11:40;1.40;;;1.30;;
2021;SDS011;1015;49.756;6.994;2024-02-04T09:14:07;1.23;;;1.13;;
2021;SDS011;1015;49.756;6.994;2024-02-04T09:16:37;1.27;;;1.17;;
2021;SDS011;1015;49.756;6.994;2024-02-04T09:19:05;1.20;;;1.10;;
2021;SDS011;1015;49.756;6.994;2024-02-04T09:21:32;1.10;;;0.90;;
2021;SDS011;1015;49.756;6.994;2024-02-04T09:23:59;5.50;;;1.33;;
2021;SDS011;1015;49.756;6.994;2024-02-04T09:26:26;1.50;;;1.10;;
2021;SDS011;1015;49.756;6.994;2024-02-04T09:28:53;0.97;;;0.97;;
2021;SDS011;1015;49.756;6.994;2024-02-04T09:31:20;0.77;;;0.77;;
2021;SDS011;1015;49.756;6.994;2024-02-04T09:33:47;2.60;;;1.10;;
2021;SDS011;1015;49.756;6.994;2024-02-04T09:36:16;0.70;;;0.67;;
2021;SDS011;1015;49.756;6.994;2024-02-04T09:38:43;0.87;;;0.80;;
2021;SDS011;1015;49.756;6.994;2024-02-04T09:41:10;2.43;;;1.00;;
2021;SDS011;1015;49.756;6.994;2024-02-04T09:43:37;1.27;;;1.00;;
2021;SDS011;1015;49.756;6.994;2024-02-04T09:46:04;0.87;;;0.87;;
2021;SDS011;1015;49.756;6.994;2024-02-04T09:48:32;0.83;;;0.83;;
2021;SDS011;1015;49.756;6.994;2024-02-04T09:50:59;2.10;;;0.97;;
2021;SDS011;1015;49.756;6.994;2024-02-04T09:53:29;0.87;;;0.87;;
2021;SDS011;1015;49.756;6.994;2024-02-04T09:55:58;0.90;;;0.90;;
2021;SDS011;1015;49.756;6.994;2024-02-04T09:58:26;1.00;;;0.90;;
2021;SDS011;1015;49.756;6.994;2024-02-04T10:00:53;0.80;;;0.80;;
2021;SDS011;1015;49.756;6.994;2024-02-04T10:03:21;0.90;;;0.90;;
2021;SDS011;1015;49.756;6.994;2024-02-04T10:05:48;0.90;;;0.90;;
2021;SDS011;1015;49.756;6.994;2024-02-04T10:08:15;0.67;;;0.67;;
2021;SDS011;1015;49.756;6.994;2024-02-04T10:10:44;1.07;;;0.97;;
2021;SDS011;1015;49.756;6.994;2024-02-04T10:13:11;0.80;;;0.80;;
2021;SDS011;1015;49.756;6.994;2024-02-04T10:15:38;0.77;;;0.77;;
2021;SDS011;1015;49.756;6.994;2024-02-04T10:18:06;0.80;;;0.80;;
2021;SDS011;1015;49.756;6.994;2024-02-04T10:20:34;0.97;;;0.80;;
2021;SDS011;1015;49.756;6.994;2024-02-04T10:23:01;1.30;;;0.90;;
2021;SDS011;1015;49.756;6.994;2024-02-04T10:25:28;0.87;;;0.80;;
2021;SDS011;1015;49.756;6.994;2024-02-04T10:27:57;0.90;;;0.90;;
2021;SDS011;1015;49.756;6.994;2024-02-04T10:30:24;0.97;;;0.90;;
2021;SDS011;1015;49.756;6.994;2024-02-04T10:32:51;1.33;;;0.90;;
2021;SDS011;1015;49.756;6.994;2024-02-04T10:35:20;0.80;;;0.70;;
2021;SDS011;1015;49.756;6.994;2024-02-04T10:37:48;1.30;;;0.93;;
2021;SDS011;1015;49.756;6.994;2024-02-04T10:40:15;1.20;;;1.10;;
2021;SDS011;1015;49.756;6.994;2024-02-04T10:42:48;1.00;;;0.90;;
2021;SDS011;1015;49.756;6.994;2024-02-04T10:45:17;2.50;;;1.10;;
2021;SDS011;1015;49.756;6.994;2024-02-04T10:47:46;0.80;;;0.80;;
2021;SDS011;1015;49.756;6.994;2024-02-04T10:50:15;0.60;;;0.60;;
2021;SDS011;1015;49.756;6.994;2024-02-04T10:52:43;1.10;;;1.00;;
2021;SDS011;1015;49.756;6.994;2024-02-04T10:55:13;0.93;;;0.90;;
2021;SDS011;1015;49.756;6.994;2024-02-04T10:57:41;0.83;;;0.80;;
2021;SDS011;1015;49.756;6.994;2024-02-04T11:00:09;1.00;;;0.80;;
2021;SDS011;1015;49.756;6.994;2024-02-04T11:02:38;0.80;;;0.70;;
2021;SDS011;1015;49.756;6.994;2024-02-04T11:05:05;1.30;;;0.93;;
2021;SDS011;1015;49.756;6.994;2024-02-04T11:07:34;0.60;;;0.60;;
2021;SDS011;1015;49.756;6.994;2024-02-04T11:10:01;1.17;;;0.93;;
2021;SDS011;1015;49.756;6.994;2024-02-04T11:12:29;0.80;;;0.80;;
2021;SDS011;1015;49.756;6.994;2024-02-04T11:14:58;1.00;;;0.90;;
2021;SDS011;1015;49.756;6.994;2024-02-04T11:17:32;0.70;;;0.70;;
2021;SDS011;1015;49.756;6.994;2024-02-04T11:20:13;1.70;;;0.80;;
2021;SDS011;1015;49.756;6.994;2024-02-04T11:22:53;0.90;;;0.90;;
2021;SDS011;1015;49.756;6.994;2024-02-04T11:25:39;0.70;;;0.70;;
2021;SDS011;1015;49.756;6.994;2024-02-04T11:28:09;0.60;;;0.60;;
2021;SDS011;1015;49.756;6.994;2024-02-04T11:30:37;1.20;;;0.80;;
2021;SDS011;1015;49.756;6.994;2024-02-04T11:33:04;0.77;;;0.77;;
2021;SDS011;1015;49.756;6.994;2024-02-04T11:35:33;0.80;;;0.70;;
2021;SDS011;1015;49.756;6.994;2024-02-04T11:38:00;0.60;;;0.60;;
2021;SDS011;1015;49.756;6.994;2024-02-04T11:40:33;1.13;;;0.80;;
2021;SDS011;1015;49.756;6.994;2024-02-04T11:43:04;0.80;;;0.80;;
2021;SDS011;1015;49.756;6.994;2024-02-04T11:45:31;0.90;;;0.90;;
2021;SDS011;1015;49.756;6.994;2024-02-04T11:48:01;0.77;;;0.77;;
2021;SDS011;1015;49.756;6.994;2024-02-04T11:50:28;1.17;;;0.80;;
2021;SDS011;1015;49.756;6.994;2024-02-04T11:53:02;0.70;;;0.70;;
2021;SDS011;1015;49.756;6.994;2024-02-04T11:55:29;0.80;;;0.80;;
2021;SDS011;1015;49.756;6.994;2024-02-04T11:57:56;0.97;;;0.77;;
2021;SDS011;1015;49.756;6.994;2024-02-04T12:00:23;0.70;;;0.70;;
2021;SDS011;1015;49.756;6.994;2024-02-04T12:02:59;1.10;;;1.00;;
2021;SDS011;1015;49.756;6.994;2024-02-04T12:05:27;0.73;;;0.73;;
2021;SDS011;1015;49.756;6.994;2024-02-04T12:07:54;0.93;;;0.83;;
2021;SDS011;1015;49.756;6.994;2024-02-04T12:10:23;0.80;;;0.80;;
2021;SDS011;1015;49.756;6.994;2024-02-04T12:12:50;0.80;;;0.80;;
2021;SDS011;1015;49.756;6.994;2024-02-04T12:15:17;0.70;;;0.70;;
2021;SDS011;1015;49.756;6.994;2024-02-04T12:17:44;0.63;;;0.63;;
2021;SDS011;1015;49.756;6.994;2024-02-04T12:20:11;0.60;;;0.60;;
2021;SDS011;1015;49.756;6.994;2024-02-04T12:22:38;0.70;;;0.70;;
2021;SDS011;1015;49.756;6.994;2024-02-04T12:25:05;0.80;;;0.80;;
2021;SDS011;1015;49.756;6.994;2024-02-04T12:27:34;1.00;;;0.70;;
2021;SDS011;1015;49.756;6.994;2024-02-04T12:30:01;0.80;;;0.80;;
2021;SDS011;1015;49.756;6.994;2024-02-04T12:32:30;0.70;;;0.70;;
2021;SDS011;1015;49.756;6.994;2024-02-04T12:34:57;1.43;;;1.33;;
2021;SDS011;1015;49.756;6.994;2024-02-04T12:37:24;1.00;;;1.00;;
2021;SDS011;1015;49.756;6.994;2024-02-04T12:39:52;0.97;;;0.97;;
2021;SDS011;1015;49.756;6.994;2024-02-04T12:42:19;1.20;;;1.10;;
2021;SDS011;1015;49.756;6.994;2024-02-04T12:44:48;1.20;;;1.10;;
2021;SDS011;1015;49.756;6.994;2024-02-04T12:47:18;1.30;;;1.20;;
2021;SDS011;1015;49.756;6.994;2024-02-04T12:49:45;1.63;;;1.50;;
2021;SDS011;1015;49.756;6.994;2024-02-04T12:52:12;1.10;;;1.00;;
2021;SDS011;1015;49.756;6.994;2024-02-04T12:54:40;1.00;;;1.00;;
2021;SDS011;1015;49.756;6.994;2024-02-04T12:57:07;1.37;;;1.27;;
2021;SDS011;1015;49.756;6.994;2024-02-04T12:59:36;1.23;;;1.13;;
2021;SDS011;1015;49.756;6.994;2024-02-04T13:02:06;1.20;;;1.10;;
2021;SDS011;1015;49.756;6.994;2024-02-04T13:04:34;1.33;;;1.23;;
2021;SDS011;1015;49.756;6.994;2024-02-04T13:07:01;1.40;;;1.30;;
2021;SDS011;1015;49.756;6.994;2024-02-04T13:09:28;1.50;;;1.40;;
2021;SDS011;1015;49.756;6.994;2024-02-04T13:12:02;3.23;;;1.40;;
2021;SDS011;1015;49.756;6.994;2024-02-04T13:14:30;1.53;;;1.20;;
2021;SDS011;1015;49.756;6.994;2024-02-04T13:16:57;1.03;;;0.97;;
2021;SDS011;1015;49.756;6.994;2024-02-04T13:19:25;1.20;;;1.10;;
2021;SDS011;1015;49.756;6.994;2024-02-04T13:21:58;1.53;;;1.33;;
2021;SDS011;1015;49.756;6.994;2024-02-04T13:24:25;1.40;;;1.30;;
2021;SDS011;1015;49.756;6.994;2024-02-04T13:26:52;1.43;;;1.33;;
2021;SDS011;1015;49.756;6.994;2024-02-04T13:29:19;1.50;;;1.40;;
2021;SDS011;1015;49.756;6.994;2024-02-04T13:31:46;1.50;;;1.40;;
2021;SDS011;1015;49.756;6.994;2024-02-04T13:34:13;1.47;;;1.30;;
2021;SDS011;1015;49.756;6.994;2024-02-04T13:36:42;1.67;;;1.57;;
2021;SDS011;1015;49.756;6.994;2024-02-04T13:39:09;1.90;;;1.30;;
2021;SDS011;1015;49.756;6.994;2024-02-04T13:41:37;1.40;;;1.30;;
2021;SDS011;1015;49.756;6.994;2024-02-04T13:44:04;1.40;;;1.30;;
2021;SDS011;1015;49.756;6.994;2024-02-04T13:46:32;1.60;;;1.50;;
2021;SDS011;1015;49.756;6.994;2024-02-04T13:49:02;1.40;;;1.30;;
2021;SDS011;1015;49.756;6.994;2024-02-04T13:51:29;1.33;;;1.23;;
2021;SDS011;1015;49.756;6.994;2024-02-04T13:53:57;1.30;;;1.20;;
2021;SDS011;1015;49.756;6.994;2024-02-04T13:56:24;1.20;;;1.10;;
2021;SDS011;1015;49.756;6.994;2024-02-04T13:58:51;1.40;;;0.90;;
2021;SDS011;1015;49.756;6.994;2024-02-04T14:01:18;0.80;;;0.80;;
2021;SDS011;1015;49.756;6.994;2024-02-04T14:03:47;1.03;;;0.83;;
2021;SDS011;1015;49.756;6.994;2024-02-04T14:06:15;0.80;;;0.80;;
2021;SDS011;1015;49.756;6.994;2024-02-04T14:08:42;0.80;;;0.80;;
2021;SDS011;1015;49.756;6.994;2024-02-04T14:11:10;0.90;;;0.90;;
2021;SDS011;1015;49.756;6.994;2024-02-04T14:13:38;0.70;;;0.70;;
2021;SDS011;1015;49.756;6.994;2024-02-04T14:16:05;1.00;;;1.00;;
2021;SDS011;1015;49.756;6.994;2024-02-04T14:18:34;0.60;;;0.60;;
2021;SDS011;1015;49.756;6.994;2024-02-04T14:21:02;0.80;;;0.80;;
2021;SDS011;1015;49.756;6.994;2024-02-04T14:23:29;0.80;;;0.80;;
2021;SDS011;1015;49.756;6.994;2024-02-04T14:25:57;1.07;;;0.97;;
2021;SDS011;1015;49.756;6.994;2024-02-04T14:28:25;0.80;;;0.80;;
2021;SDS011;1015;49.756;6.994;2024-02-04T14:30:52;1.03;;;0.93;;
2021;SDS011;1015;49.756;6.994;2024-02-04T14:33:19;0.80;;;0.80;;
2021;SDS011;1015;49.756;6.994;2024-02-04T14:35:46;1.53;;;0.80;;
2021;SDS011;1015;49.756;6.994;2024-02-04T14:38:14;1.00;;;0.90;;
2021;SDS011;1015;49.756;6.994;2024-02-04T14:40:41;0.70;;;0.70;;
2021;SDS011;1015;49.756;6.994;2024-02-04T14:43:17;0.70;;;0.67;;
2021;SDS011;1015;49.756;6.994;2024-02-04T14:45:48;0.70;;;0.70;;
2021;SDS011;1015;49.756;6.994;2024-02-04T14:48:15;0.97;;;0.97;;
2021;SDS011;1015;49.756;6.994;2024-02-04T14:50:42;0.87;;;0.87;;
2021;SDS011;1015;49.756;6.994;2024-02-04T14:53:09;0.80;;;0.80;;
2021;SDS011;1015;49.756;6.994;2024-02-04T14:55:36;1.37;;;1.27;;
2021;SDS011;1015;49.756;6.994;2024-02-04T14:58:03;1.00;;;1.00;;
2021;SDS011;1015;49.756;6.994;2024-02-04T15:00:31;1.00;;;1.00;;
2021;SDS011;1015;49.756;6.994;2024-02-04T15:03:00;1.17;;;1.17;;
2021;SDS011;1015;49.756;6.994;2024-02-04T15:05:27;0.90;;;0.90;;
2021;SDS011;1015;49.756;6.994;2024-02-04T15:07:54;2.03;;;1.07;;
2021;SDS011;1015;49.756;6.994;2024-02-04T15:10:21;1.40;;;1.30;;
2021;SDS011;1015;49.756;6.994;2024-02-04T15:12:49;1.50;;;1.40;;
2021;SDS011;1015;49.756;6.994;2024-02-04T15:15:17;1.20;;;1.20;;
2021;SDS011;1015;49.756;6.994;2024-02-04T15:17:45;1.33;;;1.23;;
2021;SDS011;1015;49.756;6.994;2024-02-04T15:20:14;1.40;;;1.30;;
2021;SDS011;1015;49.756;6.994;2024-02-04T15:22:42;1.33;;;1.23;;
2021;SDS011;1015;49.756;6.994;2024-02-04T15:25:10;1.73;;;1.63;;
2021;SDS011;1015;49.756;6.994;2024-02-04T15:27:39;1.50;;;1.40;;
2021;SDS011;1015;49.756;6.994;2024-02-04T15:30:08;2.40;;;1.63;;